createdAt,value
2023-03-17T00:01:57.071Z,1.23
2023-03-17T00:04:29.594Z,1.16
2023-03-17T00:07:01.932Z,1.09
2023-03-17T00:09:33.913Z,1.03
2023-03-17T00:12:11.792Z,0.98
2023-03-17T00:14:46.454Z,0.94
2023-03-17T00:17:18.805Z,0.90
2023-03-17T00:19:50.559Z,0.87
2023-03-17T00:22:22.466Z,0.86
2023-03-17T00:24:54.682Z,0.83
2023-03-17T00:27:26.620Z,0.80
2023-03-17T00:29:58.447Z,0.78
2023-03-17T00:32:30.483Z,0.76
2023-03-17T00:35:05.315Z,0.73
2023-03-17T00:37:37.749Z,0.70
2023-03-17T00:40:19.059Z,0.67
2023-03-17T00:46:39.748Z,0.60
2023-03-17T00:49:21.053Z,0.56
2023-03-17T00:51:54.529Z,0.52
2023-03-17T00:54:26.457Z,0.49
2023-03-17T00:56:58.657Z,0.46
2023-03-17T00:59:35.640Z,0.42
2023-03-17T01:02:10.462Z,0.39
2023-03-17T01:04:49.931Z,0.35
2023-03-17T01:07:25.424Z,0.32
2023-03-17T01:09:57.291Z,0.27
2023-03-17T01:12:29.591Z,0.24
2023-03-17T01:15:01.590Z,0.22
2023-03-17T01:17:33.919Z,0.20
2023-03-17T01:20:06.907Z,0.17
2023-03-17T01:22:39.134Z,0.14
2023-03-17T01:25:12.278Z,0.13
2023-03-17T01:27:49.704Z,0.10
2023-03-17T01:30:30.813Z,0.08
2023-03-17T01:33:03.366Z,0.06
2023-03-17T01:35:36.967Z,0.03
2023-03-17T01:38:09.381Z,0.00
2023-03-17T01:40:45.579Z,-0.03
2023-03-17T01:47:18.935Z,-0.12
2023-03-17T01:49:51.068Z,-0.15
2023-03-17T01:52:24.436Z,-0.18
2023-03-17T01:54:59.630Z,-0.22
2023-03-17T01:57:34.897Z,-0.26
2023-03-17T02:03:01.015Z,-0.33
2023-03-17T02:05:33.771Z,-0.36
2023-03-17T02:08:10.161Z,-0.39
2023-03-17T02:10:43.463Z,-0.41
2023-03-17T02:13:16.933Z,-0.44
2023-03-17T02:15:49.794Z,-0.49
2023-03-17T02:18:23.779Z,-0.52
2023-03-17T02:21:13.941Z,-0.56
2023-03-17T02:23:46.831Z,-0.60
2023-03-17T02:26:19.330Z,-0.63
2023-03-17T02:28:51.192Z,-0.66
2023-03-17T02:31:23.476Z,-0.69
2023-03-17T02:33:55.894Z,-0.71
2023-03-17T02:36:27.931Z,-0.74
2023-03-17T02:38:59.887Z,-0.78
2023-03-17T02:41:31.723Z,-0.81
2023-03-17T02:44:03.718Z,-0.83
2023-03-17T02:46:36.247Z,-0.86
2023-03-17T02:49:08.440Z,-0.88
2023-03-17T02:51:40.369Z,-0.91
2023-03-17T02:58:02.569Z,-0.98
2023-03-17T03:00:35.046Z,-1.00
2023-03-17T03:03:07.614Z,-1.02
2023-03-17T03:05:39.853Z,-1.04
2023-03-17T03:12:14.199Z,-1.09
2023-03-17T03:14:46.188Z,-1.11
2023-03-17T03:17:18.133Z,-1.13
2023-03-17T03:19:50.693Z,-1.14
2023-03-17T03:22:22.667Z,-1.15
2023-03-17T03:24:54.884Z,-1.16
2023-03-17T03:27:26.805Z,-1.18
2023-03-17T03:29:58.763Z,-1.19
2023-03-17T03:32:30.649Z,-1.20
2023-03-17T03:35:04.465Z,-1.21
2023-03-17T03:37:36.503Z,-1.23
2023-03-17T03:40:10.368Z,-1.24
2023-03-17T03:42:42.476Z,-1.26
2023-03-17T03:45:14.694Z,-1.28
2023-03-17T03:47:46.730Z,-1.29
2023-03-17T03:50:18.810Z,-1.30
2023-03-17T03:52:50.842Z,-1.32
2023-03-17T03:55:22.944Z,-1.33
2023-03-17T03:57:54.728Z,-1.34
2023-03-17T04:00:27.295Z,-1.35
2023-03-17T04:02:59.469Z,-1.37
2023-03-17T04:05:31.855Z,-1.38
2023-03-17T04:08:04.060Z,-1.39
2023-03-17T04:10:39.751Z,-1.40
2023-03-17T04:13:11.814Z,-1.41
2023-03-17T04:15:44.171Z,-1.43
2023-03-17T04:18:17.045Z,-1.44
2023-03-17T04:20:48.851Z,-1.46
2023-03-17T04:23:20.736Z,-1.48
2023-03-17T04:25:55.161Z,-1.50
2023-03-17T04:28:27.081Z,-1.51
2023-03-17T04:30:59.063Z,-1.52
2023-03-17T04:33:31.168Z,-1.53
2023-03-17T04:36:04.469Z,-1.55
2023-03-17T04:38:36.656Z,-1.55
2023-03-17T04:41:08.720Z,-1.56
2023-03-17T04:43:41.304Z,-1.56
2023-03-17T04:46:13.329Z,-1.57
2023-03-17T04:48:45.177Z,-1.59
2023-03-17T04:51:19.440Z,-1.59
2023-03-17T04:53:52.039Z,-1.60
2023-03-17T04:56:24.362Z,-1.61
2023-03-17T04:58:56.354Z,-1.63
2023-03-17T05:01:28.493Z,-1.65
2023-03-17T05:04:00.469Z,-1.66
2023-03-17T05:06:32.751Z,-1.68
2023-03-17T05:09:04.823Z,-1.69
2023-03-17T05:11:37.456Z,-1.71
2023-03-17T05:14:09.746Z,-1.72
2023-03-17T05:16:41.891Z,-1.73
2023-03-17T05:19:14.005Z,-1.73
2023-03-17T05:21:46.780Z,-1.73
2023-03-17T05:24:18.795Z,-1.72
2023-03-17T05:26:50.730Z,-1.70
2023-03-17T05:29:23.305Z,-1.69
2023-03-17T05:31:55.214Z,-1.67
2023-03-17T05:34:27.438Z,-1.66
2023-03-17T05:36:59.331Z,-1.66
2023-03-17T05:39:31.754Z,-1.65
2023-03-17T05:42:04.238Z,-1.64
2023-03-17T05:44:36.376Z,-1.62
2023-03-17T05:47:09.307Z,-1.60
2023-03-17T05:49:41.256Z,-1.58
2023-03-17T05:52:13.425Z,-1.54
2023-03-17T05:54:48.242Z,-1.50
2023-03-17T05:57:20.741Z,-1.45
2023-03-17T05:59:52.550Z,-1.41
2023-03-17T06:02:25.409Z,-1.35
2023-03-17T06:04:58.072Z,-1.29
2023-03-17T06:07:44.609Z,-1.22
2023-03-17T06:10:21.192Z,-1.14
2023-03-17T06:12:53.230Z,-1.04
2023-03-17T06:15:25.502Z,-0.97
2023-03-17T06:17:57.834Z,-0.89
2023-03-17T06:20:29.913Z,-0.82
2023-03-17T06:23:05.229Z,-0.74
2023-03-17T06:25:38.287Z,-0.67
2023-03-17T06:28:10.329Z,-0.61
2023-03-17T06:30:42.111Z,-0.54
2023-03-17T06:33:14.252Z,-0.48
2023-03-17T06:35:46.213Z,-0.43
2023-03-17T06:38:18.336Z,-0.37
2023-03-17T06:40:50.787Z,-0.32
2023-03-17T06:43:24.709Z,-0.26
2023-03-17T06:45:56.544Z,-0.19
2023-03-17T06:48:28.699Z,-0.11
2023-03-17T06:51:00.956Z,-0.03
2023-03-17T06:53:33.015Z,0.06
2023-03-17T06:56:05.856Z,0.13
2023-03-17T06:58:38.030Z,0.21
2023-03-17T07:01:10.665Z,0.29
2023-03-17T07:03:42.902Z,0.36
2023-03-17T07:06:14.997Z,0.42
2023-03-17T07:08:47.620Z,0.48
2023-03-17T07:11:19.581Z,0.54
2023-03-17T07:13:52.139Z,0.59
2023-03-17T07:16:24.442Z,0.63
2023-03-17T07:18:56.508Z,0.67
2023-03-17T07:21:28.468Z,0.71
2023-03-17T07:24:00.684Z,0.76
2023-03-17T07:26:32.787Z,0.82
2023-03-17T07:29:06.082Z,0.89
2023-03-17T07:31:41.431Z,0.96
2023-03-17T07:34:13.929Z,1.04
2023-03-17T07:36:45.942Z,1.14
2023-03-17T07:39:18.246Z,1.24
2023-03-17T07:41:55.397Z,1.34
2023-03-17T07:44:28.994Z,1.43
2023-03-17T07:47:01.349Z,1.55
2023-03-17T07:49:41.333Z,1.65
2023-03-17T07:52:14.288Z,1.78
2023-03-17T07:54:46.251Z,1.91
2023-03-17T07:57:18.334Z,2.02
2023-03-17T07:59:50.832Z,2.15
2023-03-17T08:02:23.105Z,2.29
2023-03-17T08:04:55.243Z,2.46
2023-03-17T08:07:27.198Z,2.64
2023-03-17T08:09:59.270Z,2.83
2023-03-17T08:12:31.460Z,3.05
2023-03-17T08:15:04.254Z,3.28
2023-03-17T08:17:37.487Z,3.55
2023-03-17T08:20:11.821Z,3.80
2023-03-17T08:22:42.062Z,4.04
2023-03-17T08:25:14.812Z,4.30
2023-03-17T08:27:47.035Z,4.58
2023-03-17T08:30:20.978Z,4.86
2023-03-17T08:32:54.384Z,5.12
2023-03-17T08:35:27.362Z,5.38
2023-03-17T08:38:00.314Z,5.62
2023-03-17T08:40:32.614Z,5.86
2023-03-17T08:43:04.911Z,6.09
2023-03-17T08:45:38.020Z,6.38
2023-03-17T08:48:10.112Z,6.66
2023-03-17T08:50:42.422Z,6.88
2023-03-17T08:53:14.375Z,7.05
2023-03-17T08:55:47.015Z,7.09
2023-03-17T08:58:20.301Z,7.13
2023-03-17T09:00:52.764Z,7.15
2023-03-17T09:03:25.688Z,7.15
2023-03-17T09:05:58.177Z,7.25
2023-03-17T09:08:30.239Z,7.46
2023-03-17T09:11:05.707Z,7.69
2023-03-17T09:13:39.172Z,7.91
2023-03-17T09:16:11.519Z,8.11
2023-03-17T09:18:43.567Z,8.26
2023-03-17T09:21:16.394Z,8.47
2023-03-17T09:23:48.348Z,8.73
2023-03-17T09:26:20.703Z,8.93
2023-03-17T09:28:52.515Z,9.05
2023-03-17T09:31:24.488Z,9.20
2023-03-17T09:33:56.322Z,9.35
2023-03-17T09:36:28.501Z,9.50
2023-03-17T09:39:00.664Z,9.70
2023-03-17T09:42:04.120Z,9.89
2023-03-17T09:44:55.932Z,10.15
2023-03-17T09:47:59.700Z,10.30
2023-03-17T09:50:36.630Z,10.28
2023-03-17T09:53:16.803Z,10.29
2023-03-17T09:55:51.889Z,10.40
2023-03-17T09:58:29.495Z,10.45
2023-03-17T10:01:02.042Z,10.49
2023-03-17T10:03:34.353Z,10.65
2023-03-17T10:06:19.574Z,10.81
2023-03-17T10:08:55.211Z,10.94
2023-03-17T10:11:36.671Z,11.07
2023-03-17T10:14:15.811Z,11.14
2023-03-17T10:16:51.749Z,11.10
2023-03-17T10:19:28.945Z,11.03
2023-03-17T10:22:04.260Z,11.00
2023-03-17T10:24:37.153Z,11.10
2023-03-17T10:27:10.746Z,11.23
2023-03-17T10:29:43.025Z,11.31
2023-03-17T10:32:16.094Z,11.31
2023-03-17T10:34:50.084Z,11.17
2023-03-17T10:37:24.298Z,11.08
2023-03-17T10:39:59.906Z,10.98
2023-03-17T10:42:35.815Z,10.82
2023-03-17T10:45:14.388Z,10.78
2023-03-17T10:47:51.001Z,10.70
2023-03-17T10:50:26.301Z,10.56
2023-03-17T10:53:01.173Z,10.49
2023-03-17T10:55:35.552Z,10.47
2023-03-17T10:58:09.417Z,10.49
2023-03-17T11:00:42.222Z,10.43
2023-03-17T11:03:18.691Z,10.35
2023-03-17T11:05:59.868Z,10.28
2023-03-17T11:08:35.663Z,10.23
2023-03-17T11:11:11.508Z,10.17
2023-03-17T11:13:43.318Z,10.17
2023-03-17T11:16:23.351Z,10.21
2023-03-17T11:18:58.429Z,10.14
2023-03-17T11:21:32.197Z,10.05
2023-03-17T11:24:08.277Z,9.97
2023-03-17T11:26:48.796Z,9.87
2023-03-17T11:29:27.743Z,9.83
2023-03-17T11:32:10.903Z,9.80
2023-03-17T11:34:57.155Z,9.74
2023-03-17T11:37:39.868Z,9.74
2023-03-17T11:40:19.707Z,9.64
2023-03-17T11:42:58.655Z,9.55
2023-03-17T11:45:32.875Z,9.45
2023-03-17T11:48:12.009Z,9.36
2023-03-17T11:50:51.267Z,9.26
2023-03-17T11:53:46.626Z,9.16
2023-03-17T11:56:22.059Z,9.04
2023-03-17T11:58:57.449Z,9.00
2023-03-17T12:01:34.866Z,8.92
2023-03-17T12:04:12.498Z,8.87
2023-03-17T12:06:46.105Z,8.86
2023-03-17T12:09:27.012Z,8.88
2023-03-17T12:11:59.979Z,8.93
2023-03-17T12:14:34.396Z,8.99
2023-03-17T12:17:10.955Z,8.95
2023-03-17T12:19:51.233Z,8.94
2023-03-17T12:22:28.846Z,8.94
2023-03-17T12:25:10.622Z,8.93
2023-03-17T12:27:48.265Z,8.89
2023-03-17T12:30:28.710Z,8.86
2023-03-17T12:33:12.059Z,8.86
2023-03-17T12:35:43.942Z,8.87
2023-03-17T12:38:20.385Z,8.87
2023-03-17T12:41:22.976Z,8.84
2023-03-17T12:44:09.117Z,8.83
2023-03-17T12:46:46.473Z,8.83
2023-03-17T12:49:30.085Z,8.83
2023-03-17T12:52:20.000Z,8.82
2023-03-17T12:54:52.771Z,8.81
2023-03-17T12:57:28.933Z,8.81
2023-03-17T13:00:06.285Z,8.78
2023-03-17T13:02:41.342Z,8.78
2023-03-17T13:05:18.731Z,8.81
2023-03-17T13:07:55.032Z,8.84
2023-03-17T13:10:44.901Z,8.88
2023-03-17T13:13:25.549Z,8.90
2023-03-17T13:16:03.119Z,8.91
2023-03-17T13:18:55.438Z,8.90
2023-03-17T13:21:29.212Z,8.89
2023-03-17T13:24:23.872Z,8.90
2023-03-17T13:27:01.848Z,8.91
2023-03-17T13:29:56.597Z,8.91
2023-03-17T13:32:36.766Z,8.89
2023-03-17T13:35:20.568Z,8.86
2023-03-17T13:38:07.260Z,8.81
2023-03-17T13:40:45.609Z,8.77
2023-03-17T13:43:32.244Z,8.75
2023-03-17T13:46:20.757Z,8.75
2023-03-17T13:48:53.609Z,8.70
2023-03-17T13:51:27.296Z,8.69
2023-03-17T13:54:07.966Z,8.69
2023-03-17T13:56:51.331Z,8.65
2023-03-17T13:59:24.842Z,8.63
2023-03-17T14:01:58.834Z,8.60
2023-03-17T14:04:30.034Z,8.60
2023-03-17T14:07:08.125Z,8.60
2023-03-17T14:09:42.282Z,8.60
2023-03-17T14:12:19.123Z,8.61
2023-03-17T14:14:54.073Z,8.60
2023-03-17T14:17:29.556Z,8.59
2023-03-17T14:20:08.473Z,8.59
2023-03-17T14:22:45.855Z,8.59
2023-03-17T14:25:20.317Z,8.57
2023-03-17T14:27:54.730Z,8.59
2023-03-17T14:30:29.008Z,8.59
2023-03-17T14:33:05.520Z,8.61
2023-03-17T14:35:39.670Z,8.63
2023-03-17T14:38:18.918Z,8.64
2023-03-17T14:40:52.022Z,8.64
2023-03-17T14:43:25.300Z,8.64
2023-03-17T14:46:02.622Z,8.61
2023-03-17T14:48:36.108Z,8.60
2023-03-17T14:51:11.320Z,8.62
2023-03-17T14:53:46.844Z,8.62
2023-03-17T14:56:25.876Z,8.60
2023-03-17T14:58:57.769Z,8.56
2023-03-17T15:01:40.103Z,8.53
2023-03-17T15:04:16.096Z,8.48
2023-03-17T15:06:52.944Z,8.45
2023-03-17T15:09:29.483Z,8.42
2023-03-17T15:12:07.064Z,8.41
2023-03-17T15:14:41.347Z,8.40
2023-03-17T15:17:20.428Z,8.38
2023-03-17T15:19:53.913Z,8.36
2023-03-17T15:22:29.567Z,8.34
2023-03-17T15:25:06.006Z,8.34
2023-03-17T15:27:37.827Z,8.35
2023-03-17T15:30:11.887Z,8.36
2023-03-17T15:32:42.416Z,8.37
2023-03-17T15:35:16.477Z,8.36
2023-03-17T15:37:46.835Z,8.35
2023-03-17T15:40:19.230Z,8.32
2023-03-17T15:42:51.398Z,8.33
2023-03-17T15:45:23.386Z,8.33
2023-03-17T15:47:55.883Z,8.31
2023-03-17T15:50:30.117Z,8.30
2023-03-17T15:53:02.346Z,8.26
2023-03-17T15:55:34.532Z,8.22
2023-03-17T15:58:07.933Z,8.19
2023-03-17T16:00:41.066Z,8.17
2023-03-17T16:03:20.120Z,8.13
2023-03-17T16:05:52.748Z,8.09
2023-03-17T16:08:25.186Z,8.05
2023-03-17T16:10:57.121Z,8.02
2023-03-17T16:13:29.014Z,8.00
2023-03-17T16:16:05.635Z,7.98
2023-03-17T16:18:38.958Z,7.94
2023-03-17T16:21:11.106Z,7.89
2023-03-17T16:23:43.055Z,7.84
2023-03-17T16:26:16.938Z,7.81
2023-03-17T16:28:47.927Z,7.77
2023-03-17T16:31:25.624Z,7.70
2023-03-17T16:33:57.991Z,7.64
2023-03-17T16:36:29.937Z,7.59
2023-03-17T16:39:02.100Z,7.55
2023-03-17T16:41:37.331Z,7.50
2023-03-17T16:44:10.864Z,7.46
2023-03-17T16:46:45.110Z,7.41
2023-03-17T16:49:18.322Z,7.36
2023-03-17T16:51:50.899Z,7.32
2023-03-17T16:54:23.075Z,7.29
2023-03-17T16:56:54.965Z,7.26
2023-03-17T16:59:31.332Z,7.22
2023-03-17T17:02:03.312Z,7.17
2023-03-17T17:04:38.560Z,7.14
2023-03-17T17:07:10.871Z,7.10
2023-03-17T17:09:42.851Z,7.06
2023-03-17T17:12:15.020Z,7.03
2023-03-17T17:14:47.088Z,6.99
2023-03-17T17:17:19.776Z,6.96
2023-03-17T17:19:52.045Z,6.92
2023-03-17T17:22:24.093Z,6.87
2023-03-17T17:24:56.089Z,6.82
2023-03-17T17:27:27.994Z,6.79
2023-03-17T17:30:00.333Z,6.73
2023-03-17T17:32:32.230Z,6.67
2023-03-17T17:35:05.010Z,6.61
2023-03-17T17:37:38.911Z,6.55
2023-03-17T17:40:18.027Z,6.51
2023-03-17T17:42:49.822Z,6.47
2023-03-17T17:45:22.292Z,6.41
2023-03-17T17:47:54.685Z,6.37
2023-03-17T17:50:29.868Z,6.32
2023-03-17T17:53:05.457Z,6.28
2023-03-17T17:55:37.508Z,6.24
2023-03-17T17:58:09.680Z,6.21
2023-03-17T18:00:41.899Z,6.19
2023-03-17T18:03:13.862Z,6.16
2023-03-17T18:05:46.185Z,6.12
2023-03-17T18:08:18.002Z,6.09
2023-03-17T18:10:51.962Z,6.05
2023-03-17T18:13:24.064Z,6.00
2023-03-17T18:15:55.913Z,5.95
2023-03-17T18:18:27.950Z,5.91
2023-03-17T18:21:00.145Z,5.87
2023-03-17T18:23:32.722Z,5.82
2023-03-17T18:26:06.355Z,5.78
2023-03-17T18:28:38.634Z,5.72
2023-03-17T18:31:13.107Z,5.68
2023-03-17T18:33:46.285Z,5.65
2023-03-17T18:36:18.371Z,5.61
2023-03-17T18:38:50.251Z,5.57
2023-03-17T18:41:22.546Z,5.53
2023-03-17T18:43:54.623Z,5.50
2023-03-17T18:46:26.454Z,5.46
2023-03-17T18:48:58.384Z,5.44
2023-03-17T18:51:30.661Z,5.41
2023-03-17T18:54:03.073Z,5.38
2023-03-17T18:56:36.821Z,5.36
2023-03-17T18:59:08.724Z,5.34
2023-03-17T19:01:40.860Z,5.32
2023-03-17T19:04:13.328Z,5.29
2023-03-17T19:06:45.537Z,5.27
2023-03-17T19:09:17.512Z,5.24
2023-03-17T19:11:49.631Z,5.21
2023-03-17T19:14:22.063Z,5.17
2023-03-17T19:16:54.360Z,5.14
2023-03-17T19:19:26.483Z,5.11
2023-03-17T19:21:58.757Z,5.07
2023-03-17T19:24:31.285Z,5.04
2023-03-17T19:27:03.259Z,5.00
2023-03-17T19:29:35.287Z,4.97
2023-03-17T19:32:07.960Z,4.94
2023-03-17T19:34:39.830Z,4.92
2023-03-17T19:37:11.912Z,4.89
2023-03-17T19:39:44.927Z,4.87
2023-03-17T19:42:17.561Z,4.86
2023-03-17T19:44:49.753Z,4.84
2023-03-17T19:47:21.614Z,4.83
2023-03-17T19:49:53.993Z,4.81
2023-03-17T19:52:26.464Z,4.79
2023-03-17T19:54:58.713Z,4.78
2023-03-17T19:57:31.381Z,4.76
2023-03-17T20:00:03.623Z,4.76
2023-03-17T20:02:35.912Z,4.75
2023-03-17T20:05:09.601Z,4.75
2023-03-17T20:07:42.163Z,4.74
2023-03-17T20:10:15.246Z,4.73
2023-03-17T20:12:47.177Z,4.72
2023-03-17T20:15:20.052Z,4.73
2023-03-17T20:17:51.989Z,4.72
2023-03-17T20:20:24.378Z,4.72
2023-03-17T20:22:56.407Z,4.72
2023-03-17T20:25:28.287Z,4.72
2023-03-17T20:28:00.565Z,4.70
2023-03-17T20:30:33.456Z,4.70
2023-03-17T20:33:06.710Z,4.70
2023-03-17T20:35:39.098Z,4.70
2023-03-17T20:38:12.911Z,4.69
2023-03-17T20:40:44.745Z,4.69
2023-03-17T20:43:17.173Z,4.67
2023-03-17T20:45:49.009Z,4.65
2023-03-17T20:48:21.117Z,4.65
2023-03-17T20:50:53.174Z,4.64
2023-03-17T20:53:25.326Z,4.63
2023-03-17T20:55:57.714Z,4.64
2023-03-17T20:58:30.906Z,4.63
2023-03-17T21:01:02.932Z,4.63
2023-03-17T21:03:34.899Z,4.62
2023-03-17T21:06:06.956Z,4.61
2023-03-17T21:08:39.744Z,4.61
2023-03-17T21:11:13.187Z,4.60
2023-03-17T21:13:45.240Z,4.60
2023-03-17T21:16:19.829Z,4.59
2023-03-17T21:18:52.008Z,4.58
2023-03-17T21:21:24.824Z,4.58
2023-03-17T21:23:56.846Z,4.58
2023-03-17T21:26:29.163Z,4.57
2023-03-17T21:29:00.943Z,4.57
2023-03-17T21:31:33.163Z,4.56
2023-03-17T21:34:05.134Z,4.57
2023-03-17T21:36:37.050Z,4.56
2023-03-17T21:39:09.665Z,4.56
2023-03-17T21:41:42.172Z,4.54
2023-03-17T21:44:16.050Z,4.54
2023-03-17T21:46:49.290Z,4.52
2023-03-17T21:49:22.135Z,4.52
2023-03-17T21:51:54.840Z,4.52
2023-03-17T21:54:26.810Z,4.51
2023-03-17T21:56:58.693Z,4.49
2023-03-17T21:59:32.349Z,4.49
2023-03-17T22:02:04.890Z,4.48
2023-03-17T22:04:36.645Z,4.46
2023-03-17T22:07:08.702Z,4.46
2023-03-17T22:09:41.994Z,4.45
2023-03-17T22:12:14.025Z,4.44
2023-03-17T22:14:45.995Z,4.43
2023-03-17T22:17:18.345Z,4.42
2023-03-17T22:19:50.281Z,4.40
2023-03-17T22:22:22.856Z,4.38
2023-03-17T22:24:56.599Z,4.37
2023-03-17T22:27:28.936Z,4.35
2023-03-17T22:30:01.185Z,4.34
2023-03-17T22:32:33.489Z,4.32
2023-03-17T22:35:06.832Z,4.31
2023-03-17T22:37:38.993Z,4.30
2023-03-17T22:40:12.888Z,4.29
2023-03-17T22:42:44.927Z,4.27
2023-03-17T22:45:17.407Z,4.27
2023-03-17T22:47:49.712Z,4.25
2023-03-17T22:50:22.105Z,4.24
2023-03-17T22:52:54.114Z,4.23
2023-03-17T22:55:26.026Z,4.22
2023-03-17T22:57:58.427Z,4.20
2023-03-17T23:00:32.400Z,4.19
2023-03-17T23:03:06.511Z,4.18
2023-03-17T23:05:38.515Z,4.16
2023-03-17T23:08:11.460Z,4.15
2023-03-17T23:10:43.403Z,4.15
2023-03-17T23:13:16.190Z,4.14
2023-03-17T23:15:48.131Z,4.13
2023-03-17T23:18:20.797Z,4.13
2023-03-17T23:20:53.531Z,4.11
2023-03-17T23:23:25.774Z,4.10
2023-03-17T23:25:57.569Z,4.08
2023-03-17T23:28:29.818Z,4.07
2023-03-17T23:31:02.836Z,4.06
2023-03-17T23:33:35.001Z,4.05
2023-03-17T23:36:07.661Z,4.04
2023-03-17T23:38:39.560Z,4.04
2023-03-17T23:41:12.936Z,4.03
2023-03-17T23:43:46.897Z,4.03
2023-03-17T23:46:19.018Z,4.03
2023-03-17T23:48:51.560Z,4.01
2023-03-17T23:51:24.233Z,4.01
2023-03-17T23:53:56.158Z,4.00
2023-03-17T23:56:28.522Z,4.00
2023-03-17T23:59:00.606Z,3.98
